createdAt,value
2022-10-20T00:00:21.739Z,98624.03
2022-10-20T00:02:48.460Z,98619.75
2022-10-20T00:05:15.189Z,98622.72
2022-10-20T00:07:41.786Z,98625.53
2022-10-20T00:10:08.795Z,98626.22
2022-10-20T00:12:37.564Z,98622.88
2022-10-20T00:15:04.549Z,98625.72
2022-10-20T00:17:31.205Z,98616.56
2022-10-20T00:19:58.562Z,98614.91
2022-10-20T00:22:25.207Z,98613.59
2022-10-20T00:24:52.357Z,98617.09
2022-10-20T00:27:19.006Z,98603.63
2022-10-20T00:29:47.873Z,98611.25
2022-10-20T00:32:14.529Z,98612.59
2022-10-20T00:34:41.259Z,98608.44
2022-10-20T00:37:07.908Z,98619.75
2022-10-20T00:39:34.862Z,98614.91
2022-10-20T00:42:05.492Z,98608.94
2022-10-20T00:44:50.692Z,98612.13
2022-10-20T00:47:21.061Z,98614.25
2022-10-20T00:49:48.564Z,98609.41
2022-10-20T00:52:18.625Z,98609.75
2022-10-20T00:54:45.285Z,98604.78
2022-10-20T00:57:12.497Z,98604.44
2022-10-20T00:59:39.633Z,98598.66
2022-10-20T01:02:07.614Z,98591.34
2022-10-20T01:04:34.845Z,98577.41
2022-10-20T01:07:01.521Z,98579.22
2022-10-20T01:09:28.453Z,98569.59
2022-10-20T01:12:07.282Z,98565.28
2022-10-20T01:15:08.322Z,98550.19
2022-10-20T01:17:52.743Z,98550.53
2022-10-20T01:20:40.456Z,98546.38
2022-10-20T01:23:35.006Z,98552.69
2022-10-20T01:26:23.305Z,98546.22
2022-10-20T01:29:00.074Z,98544.19
2022-10-20T01:31:45.218Z,98548.19
2022-10-20T01:34:27.778Z,98550.84
2022-10-20T01:36:55.879Z,98549.50
2022-10-20T01:39:31.894Z,98539.56
2022-10-20T01:42:09.628Z,98532.75
2022-10-20T01:44:37.410Z,98530.09
2022-10-20T01:47:04.073Z,98530.09
2022-10-20T01:49:30.737Z,98527.63
2022-10-20T01:51:57.340Z,98527.97
2022-10-20T01:54:26.403Z,98526.13
2022-10-20T01:57:26.214Z,98523.63
2022-10-20T02:00:00.229Z,98511.03
2022-10-20T02:02:56.128Z,98509.69
2022-10-20T02:05:29.047Z,98511.38
2022-10-20T02:08:04.081Z,98514.84
2022-10-20T02:10:35.597Z,98505.41
2022-10-20T02:13:06.019Z,98505.88
2022-10-20T02:15:33.496Z,98498.94
2022-10-20T02:18:03.952Z,98503.91
2022-10-20T02:20:31.754Z,98499.06
2022-10-20T02:22:59.091Z,98508.38
2022-10-20T02:25:26.733Z,98501.25
2022-10-20T02:27:54.337Z,98490.13
2022-10-20T02:30:21.364Z,98494.44
2022-10-20T02:32:50.377Z,98487.97
2022-10-20T02:35:22.822Z,98487.31
2022-10-20T02:37:49.512Z,98489.81
2022-10-20T02:40:16.250Z,98491.44
2022-10-20T02:42:43.796Z,98490.13
2022-10-20T02:45:11.169Z,98483.16
2022-10-20T02:47:38.598Z,98478.66
2022-10-20T02:50:06.336Z,98469.22
2022-10-20T02:52:32.989Z,98481.66
2022-10-20T02:54:59.674Z,98486.31
2022-10-20T02:57:27.011Z,98481.84
2022-10-20T02:59:53.758Z,98471.22
2022-10-20T03:02:20.348Z,98468.72
2022-10-20T03:04:46.961Z,98466.56
2022-10-20T03:07:14.094Z,98478.84
2022-10-20T03:09:40.724Z,98473.53
2022-10-20T03:12:07.347Z,98477.53
2022-10-20T03:14:33.938Z,98483.16
2022-10-20T03:17:00.608Z,98486.47
2022-10-20T03:19:27.263Z,98480.19
2022-10-20T03:21:53.916Z,98476.03
2022-10-20T03:24:20.523Z,98480.50
2022-10-20T03:26:47.161Z,98476.34
2022-10-20T03:29:13.802Z,98481.00
2022-10-20T03:31:40.476Z,98468.56
2022-10-20T03:34:07.210Z,98469.53
2022-10-20T03:36:33.839Z,98473.03
2022-10-20T03:39:00.481Z,98478.34
2022-10-20T03:41:27.131Z,98475.53
2022-10-20T03:43:53.719Z,98476.53
2022-10-20T03:46:20.398Z,98477.84
2022-10-20T03:48:47.025Z,98475.84
2022-10-20T03:51:14.303Z,98472.53
2022-10-20T03:53:40.928Z,98473.53
2022-10-20T03:56:08.715Z,98467.75
2022-10-20T03:58:35.475Z,98452.28
2022-10-20T04:01:02.924Z,98454.78
2022-10-20T04:03:29.554Z,98448.63
2022-10-20T04:05:56.153Z,98443.66
2022-10-20T04:08:22.803Z,98443.50
2022-10-20T04:10:49.720Z,98443.66
2022-10-20T04:13:16.304Z,98436.69
2022-10-20T04:15:42.895Z,98444.31
2022-10-20T04:18:09.573Z,98441.97
2022-10-20T04:20:37.420Z,98437.16
2022-10-20T04:23:06.026Z,98436.81
2022-10-20T04:25:32.662Z,98428.66
2022-10-20T04:28:00.119Z,98433.31
2022-10-20T04:30:27.931Z,98431.97
2022-10-20T04:32:54.500Z,98423.16
2022-10-20T04:35:21.155Z,98429.16
2022-10-20T04:37:47.769Z,98428.97
2022-10-20T04:40:14.475Z,98435.28
2022-10-20T04:42:41.050Z,98438.09
2022-10-20T04:45:08.130Z,98432.63
2022-10-20T04:47:35.147Z,98426.66
2022-10-20T04:50:02.050Z,98421.00
2022-10-20T04:52:29.447Z,98431.97
2022-10-20T04:55:01.592Z,98422.50
2022-10-20T04:57:28.218Z,98416.72
2022-10-20T04:59:54.882Z,98414.41
2022-10-20T05:02:21.520Z,98405.59
2022-10-20T05:04:48.868Z,98410.91
2022-10-20T05:07:16.189Z,98409.25
2022-10-20T05:09:42.878Z,98413.91
2022-10-20T05:12:09.511Z,98417.88
2022-10-20T05:14:36.153Z,98415.72
2022-10-20T05:17:05.239Z,98406.25
2022-10-20T05:19:34.498Z,98406.09
2022-10-20T05:22:02.997Z,98400.09
2022-10-20T05:24:30.178Z,98394.78
2022-10-20T05:26:56.984Z,98392.13
2022-10-20T05:29:24.275Z,98391.97
2022-10-20T05:31:51.051Z,98385.31
2022-10-20T05:34:17.698Z,98377.19
2022-10-20T05:36:44.352Z,98372.53
2022-10-20T05:39:11.694Z,98370.03
2022-10-20T05:41:39.103Z,98369.03
2022-10-20T05:44:08.618Z,98368.75
2022-10-20T05:46:38.421Z,98363.94
2022-10-20T05:49:05.241Z,98367.59
2022-10-20T05:51:35.981Z,98373.09
2022-10-20T05:54:03.344Z,98369.59
2022-10-20T05:56:31.056Z,98372.94
2022-10-20T05:58:58.268Z,98371.94
2022-10-20T06:01:27.351Z,98369.72
2022-10-20T06:03:56.201Z,98365.91
2022-10-20T06:06:25.469Z,98362.22
2022-10-20T06:08:52.611Z,98363.72
2022-10-20T06:11:19.985Z,98367.53
2022-10-20T06:13:48.631Z,98356.28
2022-10-20T06:16:23.988Z,98358.59
2022-10-20T06:18:50.770Z,98366.22
2022-10-20T06:21:20.086Z,98363.56
2022-10-20T06:23:46.847Z,98368.00
2022-10-20T06:26:17.710Z,98371.00
2022-10-20T06:28:45.689Z,98368.16
2022-10-20T06:31:19.174Z,98370.78
2022-10-20T06:33:46.482Z,98375.28
2022-10-20T06:36:13.812Z,98381.94
2022-10-20T06:38:41.465Z,98378.91
2022-10-20T06:41:14.051Z,98374.06
2022-10-20T06:43:40.612Z,98377.38
2022-10-20T06:46:09.205Z,98376.03
2022-10-20T06:48:36.027Z,98372.66
2022-10-20T06:51:09.727Z,98367.28
2022-10-20T06:53:36.841Z,98366.78
2022-10-20T06:56:15.010Z,98375.63
2022-10-20T06:58:43.149Z,98382.63
2022-10-20T07:01:17.664Z,98376.84
2022-10-20T07:03:46.031Z,98386.25
2022-10-20T07:06:18.675Z,98393.16
2022-10-20T07:08:45.588Z,98393.00
2022-10-20T07:11:15.395Z,98395.16
2022-10-20T07:13:43.012Z,98390.50
2022-10-20T07:16:12.834Z,98388.94
2022-10-20T07:18:39.534Z,98387.41
2022-10-20T07:21:09.102Z,98395.38
2022-10-20T07:23:36.443Z,98389.72
2022-10-20T07:26:04.208Z,98389.53
2022-10-20T07:28:31.194Z,98381.47
2022-10-20T07:30:59.822Z,98371.41
2022-10-20T07:33:26.470Z,98365.09
2022-10-20T07:35:53.232Z,98377.75
2022-10-20T07:38:19.866Z,98376.25
2022-10-20T07:40:46.535Z,98368.19
2022-10-20T07:43:13.141Z,98376.63
2022-10-20T07:45:40.048Z,98390.84
2022-10-20T07:48:07.253Z,98376.25
2022-10-20T07:50:33.994Z,98374.34
2022-10-20T07:53:00.634Z,98367.06
2022-10-20T07:55:38.574Z,98363.13
2022-10-20T07:58:06.115Z,98364.88
2022-10-20T08:00:32.780Z,98372.22
2022-10-20T08:02:59.488Z,98374.16
2022-10-20T08:05:26.906Z,98383.97
2022-10-20T08:07:53.533Z,98377.94
2022-10-20T08:10:20.219Z,98372.06
2022-10-20T08:12:46.960Z,98359.63
2022-10-20T08:15:14.042Z,98357.97
2022-10-20T08:17:40.706Z,98356.44
2022-10-20T08:20:14.874Z,98366.06
2022-10-20T08:22:41.546Z,98366.91
2022-10-20T08:25:12.511Z,98374.41
2022-10-20T08:27:39.186Z,98368.97
2022-10-20T08:30:22.947Z,98356.59
2022-10-20T08:32:53.740Z,98354.66
2022-10-20T08:35:22.133Z,98352.91
2022-10-20T08:37:48.784Z,98347.66
2022-10-20T08:40:29.772Z,98347.97
2022-10-20T08:42:56.908Z,98346.28
2022-10-20T08:45:26.121Z,98344.16
2022-10-20T08:47:55.103Z,98348.94
2022-10-20T08:50:22.488Z,98356.81
2022-10-20T08:52:54.970Z,98353.81
2022-10-20T08:55:24.870Z,98360.00
2022-10-20T08:57:51.517Z,98369.47
2022-10-20T09:00:21.812Z,98374.03
2022-10-20T09:02:50.378Z,98362.53
2022-10-20T09:05:21.100Z,98359.34
2022-10-20T09:07:51.486Z,98371.72
2022-10-20T09:10:22.735Z,98374.25
2022-10-20T09:12:49.969Z,98372.34
2022-10-20T09:15:17.981Z,98381.84
2022-10-20T09:18:03.324Z,98370.81
2022-10-20T09:20:53.957Z,98368.69
2022-10-20T09:23:41.883Z,98371.25
2022-10-20T09:26:30.574Z,98369.88
2022-10-20T09:29:14.850Z,98363.56
2022-10-20T09:31:43.160Z,98352.34
2022-10-20T09:34:23.566Z,98355.63
2022-10-20T09:36:52.198Z,98359.56
2022-10-20T09:39:24.688Z,98364.72
2022-10-20T09:41:51.468Z,98365.72
2022-10-20T09:44:23.842Z,98352.78
2022-10-20T09:46:51.692Z,98365.78
2022-10-20T09:49:31.142Z,98372.38
2022-10-20T09:51:58.055Z,98363.31
2022-10-20T09:54:26.003Z,98370.34
2022-10-20T09:56:53.262Z,98368.38
2022-10-20T09:59:25.373Z,98379.63
2022-10-20T10:01:57.420Z,98386.31
2022-10-20T10:04:51.206Z,98375.44
2022-10-20T10:07:27.018Z,98373.66
2022-10-20T10:10:03.933Z,98376.78
2022-10-20T10:12:35.952Z,98377.41
2022-10-20T10:15:11.464Z,98380.69
2022-10-20T10:17:40.565Z,98374.19
2022-10-20T10:20:29.898Z,98375.72
2022-10-20T10:23:18.309Z,98380.81
2022-10-20T10:25:45.089Z,98388.69
2022-10-20T10:28:28.689Z,98385.41
2022-10-20T10:31:18.667Z,98371.22
2022-10-20T10:33:45.494Z,98372.69
2022-10-20T10:36:34.285Z,98369.59
2022-10-20T10:39:02.206Z,98371.84
2022-10-20T10:41:50.972Z,98373.72
2022-10-20T10:44:40.879Z,98381.75
2022-10-20T10:47:16.532Z,98383.41
2022-10-20T10:49:55.588Z,98382.34
2022-10-20T10:52:35.020Z,98384.63
2022-10-20T10:55:47.125Z,98390.81
2022-10-20T10:58:34.324Z,98374.13
2022-10-20T11:01:19.443Z,98372.06
2022-10-20T11:04:28.124Z,98357.44
2022-10-20T11:07:14.828Z,98360.31
2022-10-20T11:09:56.618Z,98350.44
2022-10-20T11:12:48.055Z,98337.66
2022-10-20T11:15:34.042Z,98338.25
2022-10-20T11:18:37.886Z,98328.59
2022-10-20T11:21:23.391Z,98328.19
2022-10-20T11:24:27.142Z,98327.97
2022-10-20T11:27:02.277Z,98327.16
2022-10-20T11:29:34.640Z,98327.56
2022-10-20T11:32:27.222Z,98329.84
2022-10-20T11:35:04.741Z,98311.28
2022-10-20T11:37:36.266Z,98318.88
2022-10-20T11:40:09.105Z,98315.19
2022-10-20T11:43:13.434Z,98323.44
2022-10-20T11:45:39.955Z,98323.25
2022-10-20T11:48:22.685Z,98305.94
2022-10-20T11:51:13.676Z,98295.22
2022-10-20T11:53:46.457Z,98320.97
2022-10-20T11:56:26.074Z,98300.94
2022-10-20T11:59:01.965Z,98308.38
2022-10-20T12:01:54.516Z,98302.66
2022-10-20T12:04:46.212Z,98301.81
2022-10-20T12:07:24.906Z,98276.69
2022-10-20T12:10:18.361Z,98272.78
2022-10-20T12:13:26.778Z,98266.78
2022-10-20T12:15:53.467Z,98274.19
2022-10-20T12:18:33.689Z,98281.63
2022-10-20T12:21:08.483Z,98275.84
2022-10-20T12:23:48.965Z,98281.59
2022-10-20T12:26:30.584Z,98274.22
2022-10-20T12:28:57.594Z,98252.41
2022-10-20T12:31:25.839Z,98253.66
2022-10-20T12:33:53.427Z,98254.88
2022-10-20T12:36:20.022Z,98258.97
2022-10-20T12:38:49.765Z,98269.69
2022-10-20T12:41:34.940Z,98267.03
2022-10-20T12:44:15.662Z,98252.00
2022-10-20T12:46:44.159Z,98247.22
2022-10-20T12:49:22.784Z,98253.44
2022-10-20T12:51:52.156Z,98247.06
2022-10-20T12:54:48.700Z,98243.75
2022-10-20T12:57:35.548Z,98255.91
2022-10-20T13:00:04.216Z,98270.53
2022-10-20T13:02:44.682Z,98268.25
2022-10-20T13:05:14.306Z,98287.00
2022-10-20T13:07:46.787Z,98278.31
2022-10-20T13:10:31.784Z,98258.13
2022-10-20T13:13:01.135Z,98268.38
2022-10-20T13:15:42.747Z,98245.94
2022-10-20T13:18:12.560Z,98225.28
2022-10-20T13:20:57.951Z,98207.34
2022-10-20T13:23:56.924Z,98183.28
2022-10-20T13:26:45.256Z,98205.19
2022-10-20T13:29:39.612Z,98228.34
2022-10-20T13:32:32.107Z,98206.81
2022-10-20T13:35:09.440Z,98192.66
2022-10-20T13:37:47.098Z,98211.53
2022-10-20T13:40:27.281Z,98214.19
2022-10-20T13:42:59.823Z,98202.94
2022-10-20T13:45:44.864Z,98202.59
2022-10-20T13:48:53.380Z,98196.03
2022-10-20T13:51:25.012Z,98211.03
2022-10-20T13:53:54.618Z,98215.78
2022-10-20T13:56:35.490Z,98230.81
2022-10-20T13:59:06.373Z,98222.63
2022-10-20T14:01:35.331Z,98225.50
2022-10-20T14:04:02.291Z,98229.00
2022-10-20T14:06:34.627Z,98219.75
2022-10-20T14:09:12.376Z,98220.56
2022-10-20T14:11:39.985Z,98212.75
2022-10-20T14:14:06.665Z,98222.22
2022-10-20T14:16:33.663Z,98215.22
2022-10-20T14:19:09.297Z,98216.47
2022-10-20T14:21:41.267Z,98221.19
2022-10-20T14:24:14.155Z,98219.72
2022-10-20T14:26:44.088Z,98208.81
2022-10-20T14:29:14.725Z,98208.63
2022-10-20T14:31:41.810Z,98212.97
2022-10-20T14:34:19.951Z,98224.25
2022-10-20T14:36:47.245Z,98223.84
2022-10-20T14:39:22.715Z,98210.03
2022-10-20T14:41:50.776Z,98192.59
2022-10-20T14:44:30.949Z,98195.84
2022-10-20T14:47:00.839Z,98199.75
2022-10-20T14:49:30.268Z,98190.28
2022-10-20T14:51:59.808Z,98182.09
2022-10-20T14:54:27.768Z,98187.22
2022-10-20T14:57:01.263Z,98174.47
2022-10-20T14:59:33.351Z,98182.88
2022-10-20T15:02:12.613Z,98183.50
2022-10-20T15:04:43.218Z,98188.25
2022-10-20T15:07:18.263Z,98192.78
2022-10-20T15:09:53.703Z,98197.66
2022-10-20T15:12:22.778Z,98200.97
2022-10-20T15:14:54.752Z,98192.97
2022-10-20T15:17:41.264Z,98175.72
2022-10-20T15:20:30.517Z,98168.31
2022-10-20T15:22:59.064Z,98184.75
2022-10-20T15:25:31.097Z,98191.28
2022-10-20T15:27:58.575Z,98200.34
2022-10-20T15:30:26.087Z,98196.84
2022-10-20T15:32:53.621Z,98200.75
2022-10-20T15:35:22.875Z,98206.50
2022-10-20T15:37:52.071Z,98203.00
2022-10-20T15:40:19.784Z,98196.41
2022-10-20T15:42:46.601Z,98191.69
2022-10-20T15:45:16.940Z,98175.88
2022-10-20T15:47:44.256Z,98192.09
2022-10-20T15:50:11.281Z,98195.41
2022-10-20T15:52:38.508Z,98192.03
2022-10-20T15:55:22.617Z,98180.97
2022-10-20T15:57:50.938Z,98186.44
2022-10-20T16:00:18.362Z,98171.47
2022-10-20T16:02:45.131Z,98164.94
2022-10-20T16:05:12.286Z,98170.66
2022-10-20T16:07:39.446Z,98183.81
2022-10-20T16:10:07.699Z,98182.59
2022-10-20T16:12:34.566Z,98176.81
2022-10-20T16:15:01.538Z,98178.84
2022-10-20T16:17:28.217Z,98171.44
2022-10-20T16:19:54.873Z,98175.72
2022-10-20T16:22:21.681Z,98176.53
2022-10-20T16:24:48.518Z,98184.13
2022-10-20T16:27:16.194Z,98200.38
2022-10-20T16:29:45.162Z,98213.94
2022-10-20T16:32:14.374Z,98206.84
2022-10-20T16:34:41.010Z,98198.84
2022-10-20T16:37:08.002Z,98190.44
2022-10-20T16:39:34.593Z,98171.59
2022-10-20T16:42:01.276Z,98162.31
2022-10-20T16:44:28.012Z,98174.00
2022-10-20T16:46:54.683Z,98180.00
2022-10-20T16:49:21.393Z,98180.56
2022-10-20T16:51:48.036Z,98188.75
2022-10-20T16:54:14.702Z,98180.38
2022-10-20T16:56:41.392Z,98172.97
2022-10-20T16:59:08.351Z,98176.91
2022-10-20T17:01:35.016Z,98197.66
2022-10-20T17:04:01.645Z,98192.06
2022-10-20T17:06:28.288Z,98193.50
2022-10-20T17:08:55.002Z,98171.53
2022-10-20T17:11:27.207Z,98147.13
2022-10-20T17:13:54.305Z,98134.19
2022-10-20T17:16:28.605Z,98142.78
2022-10-20T17:18:57.047Z,98140.13
2022-10-20T17:21:24.026Z,98134.56
2022-10-20T17:23:50.614Z,98143.19
2022-10-20T17:26:19.877Z,98142.72
2022-10-20T17:28:47.029Z,98152.78
2022-10-20T17:33:44.347Z,98136.34
2022-10-20T17:36:14.238Z,98126.13
2022-10-20T17:38:41.724Z,98126.75
2022-10-20T17:41:10.860Z,98144.59
2022-10-20T17:43:37.684Z,98149.72
2022-10-20T17:46:10.792Z,98153.63
2022-10-20T17:48:38.014Z,98141.69
2022-10-20T17:51:10.915Z,98141.91
2022-10-20T17:53:39.741Z,98145.63
2022-10-20T17:56:31.431Z,98159.97
2022-10-20T17:58:59.730Z,98180.31
2022-10-20T18:01:31.086Z,98182.13
2022-10-20T18:04:06.596Z,98189.66
2022-10-20T18:06:34.813Z,98200.81
2022-10-20T18:09:07.405Z,98206.63
2022-10-20T18:11:35.420Z,98203.06
2022-10-20T18:14:02.440Z,98200.16
2022-10-20T18:16:31.413Z,98199.53
2022-10-20T18:21:48.328Z,98211.66
2022-10-20T18:24:16.373Z,98205.34
2022-10-20T18:26:43.222Z,98195.88
2022-10-20T18:29:10.670Z,98199.59
2022-10-20T18:31:39.510Z,98203.66
2022-10-20T18:34:18.268Z,98212.63
2022-10-20T18:36:45.892Z,98231.47
2022-10-20T18:39:13.584Z,98225.31
2022-10-20T18:41:40.908Z,98217.22
2022-10-20T18:44:11.740Z,98222.56
2022-10-20T18:46:39.822Z,98223.56
2022-10-20T18:49:07.730Z,98211.22
2022-10-20T18:51:35.980Z,98200.94
2022-10-20T18:54:03.376Z,98201.84
2022-10-20T18:56:30.266Z,98190.94
2022-10-20T18:59:02.831Z,98198.13
2022-10-20T19:01:35.084Z,98189.72
2022-10-20T19:04:02.612Z,98190.09
2022-10-20T19:06:34.447Z,98181.63
2022-10-20T19:09:03.664Z,98170.78
2022-10-20T19:11:32.448Z,98179.22
2022-10-20T19:13:59.826Z,98183.47
2022-10-20T19:16:32.158Z,98173.38
2022-10-20T19:19:00.446Z,98168.88
2022-10-20T19:21:28.542Z,98153.25
2022-10-20T19:24:04.450Z,98154.13
2022-10-20T19:26:57.118Z,98153.47
2022-10-20T19:29:32.831Z,98146.03
2022-10-20T19:32:01.206Z,98148.50
2022-10-20T19:34:31.357Z,98156.28
2022-10-20T19:36:58.879Z,98161.47
2022-10-20T19:39:28.418Z,98160.66
2022-10-20T19:41:56.341Z,98168.38
2022-10-20T19:44:23.261Z,98176.31
2022-10-20T19:46:51.583Z,98169.59
2022-10-20T19:49:19.305Z,98172.63
2022-10-20T19:51:46.038Z,98159.06
2022-10-20T19:54:13.142Z,98158.06
2022-10-20T19:56:40.965Z,98167.13
2022-10-20T19:59:08.263Z,98146.09
2022-10-20T20:01:35.541Z,98159.69
2022-10-20T20:04:02.331Z,98163.25
2022-10-20T20:06:29.079Z,98159.63
2022-10-20T20:09:02.297Z,98152.69
2022-10-20T20:11:31.075Z,98154.56
2022-10-20T20:13:58.923Z,98148.19
2022-10-20T20:16:26.368Z,98144.47
2022-10-20T20:18:53.491Z,98135.06
2022-10-20T20:21:20.770Z,98127.44
2022-10-20T20:23:59.000Z,98132.59
2022-10-20T20:26:27.203Z,98140.41
2022-10-20T20:28:54.960Z,98130.31
2022-10-20T20:31:22.351Z,98133.63
2022-10-20T20:33:49.575Z,98146.56
2022-10-20T20:36:16.432Z,98153.84
2022-10-20T20:38:43.139Z,98162.56
2022-10-20T20:41:17.705Z,98152.59
2022-10-20T20:43:47.177Z,98147.91
2022-10-20T20:46:20.343Z,98132.72
2022-10-20T20:48:47.113Z,98140.50
2022-10-20T20:51:14.876Z,98140.25
2022-10-20T20:53:41.826Z,98143.56
2022-10-20T20:56:11.725Z,98155.31
2022-10-20T20:58:38.613Z,98161.66
2022-10-20T21:01:07.337Z,98157.03
2022-10-20T21:03:34.695Z,98153.72
2022-10-20T21:06:08.525Z,98165.25
2022-10-20T21:08:39.640Z,98152.13
2022-10-20T21:11:16.819Z,98148.34
2022-10-20T21:13:44.608Z,98140.75
2022-10-20T21:16:14.181Z,98148.97
2022-10-20T21:18:42.993Z,98158.59
2022-10-20T21:21:15.280Z,98162.69
2022-10-20T21:23:42.209Z,98167.78
2022-10-20T21:26:10.032Z,98173.53
2022-10-20T21:28:37.173Z,98177.78
2022-10-20T21:31:08.329Z,98171.44
2022-10-20T21:33:36.232Z,98153.38
2022-10-20T21:36:08.131Z,98128.53
2022-10-20T21:38:36.154Z,98131.84
2022-10-20T21:41:26.996Z,98136.50
2022-10-20T21:43:55.839Z,98129.94
2022-10-20T21:46:51.830Z,98127.22
2022-10-20T21:49:21.477Z,98143.34
2022-10-20T21:51:52.108Z,98133.25
2022-10-20T21:57:08.740Z,98136.75
2022-10-20T21:59:35.324Z,98139.41
2022-10-20T22:02:02.087Z,98135.28
2022-10-20T22:04:29.774Z,98124.44
2022-10-20T22:06:57.143Z,98126.53
2022-10-20T22:09:24.394Z,98119.78
2022-10-20T22:11:55.084Z,98115.69
2022-10-20T22:14:22.155Z,98111.56
2022-10-20T22:16:48.829Z,98108.31
2022-10-20T22:19:18.070Z,98100.53
2022-10-20T22:21:47.072Z,98100.91
2022-10-20T22:24:14.632Z,98096.66
2022-10-20T22:26:41.729Z,98101.13
2022-10-20T22:29:11.691Z,98103.19
2022-10-20T22:31:39.668Z,98106.47
2022-10-20T22:34:07.453Z,98109.72
2022-10-20T22:36:34.470Z,98090.88
2022-10-20T22:39:01.228Z,98079.81
2022-10-20T22:41:28.169Z,98079.38
2022-10-20T22:43:54.901Z,98073.81
2022-10-20T22:46:21.492Z,98082.97
2022-10-20T22:48:48.196Z,98067.16
2022-10-20T22:51:15.518Z,98072.91
2022-10-20T22:53:42.545Z,98067.16
2022-10-20T22:56:11.967Z,98071.09
2022-10-20T22:58:38.891Z,98066.13
2022-10-20T23:01:10.090Z,98068.03
2022-10-20T23:03:37.271Z,98072.31
2022-10-20T23:06:09.416Z,98070.59
2022-10-20T23:08:44.475Z,98069.31
2022-10-20T23:11:11.818Z,98066.41
2022-10-20T23:13:38.687Z,98063.72
2022-10-20T23:16:05.950Z,98065.31
2022-10-20T23:18:33.146Z,98061.41
2022-10-20T23:20:59.942Z,98065.63
2022-10-20T23:23:26.831Z,98061.72
2022-10-20T23:25:53.560Z,98069.97
2022-10-20T23:28:20.171Z,98077.31
2022-10-20T23:30:47.562Z,98075.66
2022-10-20T23:33:14.586Z,98073.56
2022-10-20T23:35:41.322Z,98065.13
2022-10-20T23:38:09.477Z,98057.75
2022-10-20T23:40:36.792Z,98050.03
2022-10-20T23:43:03.625Z,98053.53
2022-10-20T23:45:31.837Z,98051.44
2022-10-20T23:48:00.867Z,98047.72
2022-10-20T23:50:27.468Z,98045.56
2022-10-20T23:52:54.145Z,98049.59
2022-10-20T23:55:20.857Z,98053.72
2022-10-20T23:57:49.291Z,98049.72
